createdAt,value
2019-03-20T00:00:40.361Z,48.57
2019-03-20T00:03:09.800Z,47.23
2019-03-20T00:05:39.196Z,50.43
2019-03-20T00:08:08.636Z,50.00
2019-03-20T00:10:38.198Z,52.97
2019-03-20T00:13:07.949Z,50.97
2019-03-20T00:15:37.403Z,51.97
2019-03-20T00:18:07.078Z,50.67
2019-03-20T00:20:36.655Z,50.57
2019-03-20T00:23:06.212Z,52.73
2019-03-20T00:25:35.679Z,53.10
2019-03-20T00:28:05.086Z,56.57
2019-03-20T00:30:34.518Z,57.80
2019-03-20T00:33:03.923Z,58.03
2019-03-20T00:35:33.461Z,56.77
2019-03-20T00:38:03.256Z,59.83
2019-03-20T00:40:32.595Z,61.53
2019-03-20T00:43:01.999Z,63.03
2019-03-20T00:45:31.517Z,61.33
2019-03-20T00:48:00.980Z,59.23
2019-03-20T00:50:30.502Z,62.03
2019-03-20T00:53:00.118Z,63.17
2019-03-20T00:55:29.736Z,63.53
2019-03-20T00:57:59.130Z,62.83
2019-03-20T01:00:29.031Z,57.70
2019-03-20T01:02:58.404Z,56.90
2019-03-20T01:05:27.853Z,54.20
2019-03-20T01:07:57.328Z,57.30
2019-03-20T01:10:27.160Z,54.17
2019-03-20T01:12:56.486Z,55.13
2019-03-20T01:15:25.932Z,57.80
2019-03-20T01:17:55.309Z,61.43
2019-03-20T01:20:24.773Z,65.20
2019-03-20T01:22:54.359Z,63.70
2019-03-20T01:25:23.754Z,63.63
2019-03-20T01:27:53.207Z,63.40
2019-03-20T01:30:32.775Z,60.17
2019-03-20T01:33:03.439Z,60.97
2019-03-20T01:35:32.858Z,61.87
2019-03-20T01:38:02.470Z,63.07
2019-03-20T01:40:31.904Z,63.90
2019-03-20T01:43:01.372Z,61.43
2019-03-20T01:45:31.252Z,63.33
2019-03-20T01:48:00.631Z,60.30
2019-03-20T01:50:30.194Z,59.23
2019-03-20T01:52:59.561Z,58.43
2019-03-20T01:55:28.885Z,59.97
2019-03-20T01:57:58.286Z,59.33
2019-03-20T02:00:27.794Z,61.60
2019-03-20T02:02:57.011Z,61.83
2019-03-20T02:05:35.349Z,61.20
2019-03-20T02:07:58.005Z,64.47
2019-03-20T02:10:27.252Z,65.10
2019-03-20T02:12:58.552Z,64.43
2019-03-20T02:15:38.003Z,62.37
2019-03-20T02:17:58.620Z,62.80
2019-03-20T02:20:28.003Z,65.77
2019-03-20T02:22:57.383Z,67.67
2019-03-20T02:25:26.685Z,66.97
2019-03-20T02:27:55.946Z,69.73
2019-03-20T02:30:44.400Z,65.60
2019-03-20T02:33:13.856Z,69.57
2019-03-20T02:35:51.348Z,68.57
2019-03-20T02:38:14.430Z,67.83
2019-03-20T02:40:44.065Z,64.03
2019-03-20T02:43:13.522Z,64.70
2019-03-20T02:45:42.968Z,65.67
2019-03-20T02:48:12.448Z,67.53
2019-03-20T02:50:41.910Z,62.73
2019-03-20T02:53:11.333Z,62.13
2019-03-20T02:55:40.832Z,62.50
2019-03-20T02:58:10.281Z,62.07
2019-03-20T03:00:39.782Z,64.53
2019-03-20T03:03:09.232Z,62.73
2019-03-20T03:05:39.692Z,66.73
2019-03-20T03:08:09.180Z,64.67
2019-03-20T03:10:38.614Z,63.30
2019-03-20T03:13:08.094Z,64.00
2019-03-20T03:15:37.563Z,62.20
2019-03-20T03:18:07.249Z,62.33
2019-03-20T03:20:36.751Z,64.17
2019-03-20T03:23:07.275Z,60.10
2019-03-20T03:25:36.753Z,62.67
2019-03-20T03:28:06.212Z,64.03
2019-03-20T03:30:35.999Z,62.67
2019-03-20T03:33:05.483Z,63.30
2019-03-20T03:35:34.914Z,59.63
2019-03-20T03:38:04.518Z,62.40
2019-03-20T03:40:33.998Z,60.63
2019-03-20T03:43:03.504Z,62.07
2019-03-20T03:45:32.910Z,62.40
2019-03-20T03:48:02.438Z,62.53
2019-03-20T03:50:32.004Z,64.10
2019-03-20T03:53:01.397Z,62.53
2019-03-20T03:55:31.028Z,64.10
2019-03-20T03:58:00.615Z,62.63
2019-03-20T04:00:30.128Z,61.83
2019-03-20T04:02:59.603Z,60.30
2019-03-20T04:05:29.070Z,59.40
2019-03-20T04:07:58.488Z,58.40
2019-03-20T04:10:28.044Z,59.00
2019-03-20T04:12:57.552Z,59.53
2019-03-20T04:15:27.212Z,58.87
2019-03-20T04:17:56.651Z,59.10
2019-03-20T04:20:26.017Z,58.90
2019-03-20T04:22:55.574Z,63.27
2019-03-20T04:25:24.970Z,60.50
2019-03-20T04:27:59.260Z,58.63
2019-03-20T04:30:28.663Z,60.67
2019-03-20T04:32:58.157Z,63.70
2019-03-20T04:35:30.694Z,61.00
2019-03-20T04:38:00.180Z,61.83
2019-03-20T04:40:29.562Z,60.20
2019-03-20T04:42:59.069Z,60.33
2019-03-20T04:45:28.508Z,58.07
2019-03-20T04:47:57.967Z,59.50
2019-03-20T04:50:27.543Z,60.17
2019-03-20T04:52:57.052Z,59.50
2019-03-20T04:55:26.555Z,59.53
2019-03-20T04:57:55.972Z,58.57
2019-03-20T05:00:25.415Z,59.43
2019-03-20T05:02:54.813Z,60.13
2019-03-20T05:05:24.309Z,59.37
2019-03-20T05:07:53.715Z,59.67
2019-03-20T05:10:23.277Z,59.30
2019-03-20T05:12:52.630Z,61.87
2019-03-20T05:15:22.009Z,59.17
2019-03-20T05:17:51.363Z,57.50
2019-03-20T05:20:20.770Z,61.83
2019-03-20T05:22:50.175Z,58.23
2019-03-20T05:25:19.692Z,59.07
2019-03-20T05:27:49.085Z,59.17
2019-03-20T05:30:18.452Z,55.53
2019-03-20T05:32:48.033Z,55.43
2019-03-20T05:35:17.465Z,53.10
2019-03-20T05:37:47.006Z,56.10
2019-03-20T05:40:17.430Z,53.80
2019-03-20T05:42:46.966Z,58.47
2019-03-20T05:45:16.462Z,56.37
2019-03-20T05:47:45.835Z,54.33
2019-03-20T05:50:15.238Z,55.67
2019-03-20T05:52:44.654Z,53.63
2019-03-20T05:55:14.425Z,55.10
2019-03-20T05:57:43.830Z,54.07
2019-03-20T06:00:14.568Z,52.90
2019-03-20T06:02:43.979Z,55.87
2019-03-20T06:05:13.906Z,55.17
2019-03-20T06:07:43.308Z,56.90
2019-03-20T06:10:13.538Z,59.97
2019-03-20T06:12:43.154Z,60.17
2019-03-20T06:15:12.612Z,62.77
2019-03-20T06:17:41.958Z,58.03
2019-03-20T06:20:11.486Z,60.43
2019-03-20T06:22:40.983Z,58.17
2019-03-20T06:25:10.735Z,58.90
2019-03-20T06:27:40.182Z,57.30
2019-03-20T06:30:12.524Z,60.53
2019-03-20T06:32:41.886Z,60.60
2019-03-20T06:35:11.626Z,56.67
2019-03-20T06:37:41.092Z,60.10
2019-03-20T06:40:10.979Z,56.33
2019-03-20T06:42:45.880Z,57.87
2019-03-20T06:45:15.390Z,56.37
2019-03-20T06:47:44.740Z,55.10
2019-03-20T06:50:15.117Z,55.50
2019-03-20T06:52:44.545Z,51.70
2019-03-20T06:55:14.106Z,53.60
2019-03-20T06:57:45.506Z,50.83
2019-03-20T07:00:46.873Z,54.77
2019-03-20T07:03:46.003Z,52.13
2019-03-20T07:06:37.815Z,56.67
2019-03-20T07:09:23.699Z,54.67
2019-03-20T07:11:57.497Z,59.67
2019-03-20T07:14:27.019Z,57.73
2019-03-20T07:16:58.266Z,56.87
2019-03-20T07:19:27.959Z,56.60
2019-03-20T07:21:58.458Z,57.17
2019-03-20T07:24:27.787Z,51.93
2019-03-20T07:26:59.452Z,49.73
2019-03-20T07:29:28.833Z,48.67
2019-03-20T07:31:58.338Z,48.40
2019-03-20T07:34:27.893Z,46.73
2019-03-20T07:36:57.298Z,49.00
2019-03-20T07:39:31.028Z,47.17
2019-03-20T07:42:03.562Z,46.37
2019-03-20T07:44:35.920Z,46.33
2019-03-20T07:47:06.789Z,49.67
2019-03-20T07:49:36.085Z,49.80
2019-03-20T07:52:05.552Z,50.30
2019-03-20T07:54:36.733Z,48.77
2019-03-20T07:57:06.098Z,49.13
2019-03-20T07:59:35.319Z,50.63
2019-03-20T08:02:04.516Z,50.27
2019-03-20T08:04:33.815Z,52.23
2019-03-20T08:07:03.103Z,51.80
2019-03-20T08:09:32.509Z,50.17
2019-03-20T08:12:01.795Z,52.00
2019-03-20T08:14:30.972Z,52.17
2019-03-20T08:17:00.229Z,52.97
2019-03-20T08:19:29.577Z,52.30
2019-03-20T08:21:58.819Z,54.40
2019-03-20T08:24:28.018Z,54.53
2019-03-20T08:26:57.179Z,47.50
2019-03-20T08:29:26.491Z,51.27
2019-03-20T08:31:56.079Z,37.83
2019-03-20T08:34:25.326Z,37.33
2019-03-20T08:36:54.609Z,41.77
2019-03-20T08:39:23.797Z,39.57
2019-03-20T08:41:53.106Z,31.50
2019-03-20T08:44:22.386Z,36.47
2019-03-20T08:46:51.702Z,26.90
2019-03-20T08:49:20.930Z,20.33
2019-03-20T08:51:50.144Z,14.23
2019-03-20T08:54:19.395Z,11.63
2019-03-20T08:56:50.612Z,10.97
2019-03-20T08:59:19.894Z,13.50
2019-03-20T09:01:49.335Z,15.47
2019-03-20T09:04:20.203Z,14.93
2019-03-20T09:06:49.445Z,13.57
2019-03-20T09:09:18.741Z,15.90
2019-03-20T09:11:48.028Z,15.77
2019-03-20T09:14:17.671Z,15.87
2019-03-20T09:16:47.010Z,19.37
2019-03-20T09:19:16.292Z,18.83
2019-03-20T09:21:45.512Z,18.50
2019-03-20T09:24:14.820Z,17.00
2019-03-20T09:26:43.979Z,21.60
2019-03-20T09:29:18.489Z,20.63
2019-03-20T09:31:44.162Z,16.17
2019-03-20T09:34:13.366Z,14.03
2019-03-20T09:36:43.563Z,13.03
2019-03-20T09:39:12.946Z,12.60
2019-03-20T09:41:42.236Z,12.43
2019-03-20T09:44:11.827Z,12.23
2019-03-20T09:46:41.089Z,11.53
2019-03-20T09:49:10.395Z,10.10
2019-03-20T09:51:39.819Z,8.90
2019-03-20T09:54:09.101Z,6.43
2019-03-20T09:56:38.514Z,5.80
2019-03-20T09:59:07.729Z,5.60
2019-03-20T10:01:36.988Z,5.87
2019-03-20T10:04:06.469Z,6.57
2019-03-20T10:06:35.664Z,6.63
2019-03-20T10:09:07.838Z,7.10
2019-03-20T10:11:38.242Z,7.40
2019-03-20T10:14:07.629Z,8.17
2019-03-20T10:16:36.839Z,8.23
2019-03-20T10:19:06.007Z,8.40
2019-03-20T10:21:35.292Z,7.40
2019-03-20T10:24:04.462Z,8.07
2019-03-20T10:26:33.702Z,8.13
2019-03-20T10:29:02.912Z,7.37
2019-03-20T10:31:34.232Z,7.23
2019-03-20T10:34:03.442Z,7.30
2019-03-20T10:36:32.790Z,7.97
2019-03-20T10:39:06.385Z,10.03
2019-03-20T10:41:33.145Z,9.83
2019-03-20T10:44:02.564Z,10.30
2019-03-20T10:46:31.870Z,12.00
2019-03-20T10:49:01.203Z,13.23
2019-03-20T10:51:30.768Z,13.53
2019-03-20T10:54:00.158Z,13.83
2019-03-20T10:56:29.572Z,12.17
2019-03-20T10:58:58.877Z,9.93
2019-03-20T11:01:28.353Z,9.60
2019-03-20T11:03:57.707Z,8.13
2019-03-20T11:06:29.178Z,9.23
2019-03-20T11:08:58.679Z,8.73
2019-03-20T11:11:28.116Z,8.50
2019-03-20T11:13:57.445Z,7.33
2019-03-20T11:16:26.788Z,8.40
2019-03-20T11:18:56.116Z,8.00
2019-03-20T11:21:25.491Z,7.87
2019-03-20T11:23:54.836Z,7.70
2019-03-20T11:26:24.085Z,8.20
2019-03-20T11:28:53.484Z,9.30
2019-03-20T11:31:22.790Z,8.77
2019-03-20T11:33:52.094Z,9.30
2019-03-20T11:36:21.359Z,10.27
2019-03-20T11:38:50.661Z,10.40
2019-03-20T11:41:19.900Z,10.33
2019-03-20T11:43:49.107Z,11.10
2019-03-20T11:46:18.398Z,10.23
2019-03-20T11:48:47.633Z,9.83
2019-03-20T11:51:16.903Z,10.30
2019-03-20T11:53:46.250Z,10.93
2019-03-20T11:56:15.728Z,10.50
2019-03-20T11:58:45.016Z,11.03
2019-03-20T12:01:14.352Z,11.47
2019-03-20T12:03:43.734Z,12.23
2019-03-20T12:06:13.069Z,12.63
2019-03-20T12:08:42.354Z,13.27
2019-03-20T12:11:11.820Z,12.53
2019-03-20T12:13:41.055Z,12.07
2019-03-20T12:16:10.405Z,11.70
2019-03-20T12:18:39.689Z,11.20
2019-03-20T12:21:08.944Z,11.63
2019-03-20T12:23:38.259Z,10.27
2019-03-20T12:26:07.583Z,10.37
2019-03-20T12:28:37.926Z,9.87
2019-03-20T12:31:07.291Z,9.67
2019-03-20T12:33:36.741Z,9.90
2019-03-20T12:36:06.233Z,10.00
2019-03-20T12:38:35.451Z,8.93
2019-03-20T12:41:05.244Z,8.10
2019-03-20T12:43:34.602Z,8.10
2019-03-20T12:46:03.867Z,8.40
2019-03-20T12:48:33.186Z,8.63
2019-03-20T12:51:02.507Z,8.30
2019-03-20T12:53:32.245Z,8.23
2019-03-20T12:56:01.628Z,8.27
2019-03-20T12:58:31.080Z,9.17
2019-03-20T13:01:00.348Z,9.07
2019-03-20T13:03:30.741Z,9.47
2019-03-20T13:06:00.187Z,10.20
2019-03-20T13:08:29.864Z,10.13
2019-03-20T13:10:59.178Z,10.03
2019-03-20T13:13:28.437Z,9.30
2019-03-20T13:15:57.748Z,9.63
2019-03-20T13:18:27.446Z,20.13
2019-03-20T13:20:56.798Z,16.47
2019-03-20T13:23:28.415Z,17.30
2019-03-20T13:25:57.760Z,11.80
2019-03-20T13:28:26.940Z,12.77
2019-03-20T13:30:59.752Z,11.83
2019-03-20T13:33:29.049Z,10.63
2019-03-20T13:35:58.334Z,9.77
2019-03-20T13:38:27.511Z,9.30
2019-03-20T13:40:56.810Z,10.17
2019-03-20T13:43:26.013Z,9.77
2019-03-20T13:45:55.271Z,9.67
2019-03-20T13:48:24.618Z,9.47
2019-03-20T13:50:53.989Z,9.73
2019-03-20T13:53:23.247Z,9.67
2019-03-20T13:55:52.555Z,9.60
2019-03-20T13:58:22.178Z,9.73
2019-03-20T14:00:51.428Z,9.00
2019-03-20T14:03:21.082Z,9.37
2019-03-20T14:05:50.365Z,9.37
2019-03-20T14:08:19.640Z,8.80
2019-03-20T14:10:50.766Z,9.03
2019-03-20T14:13:19.948Z,10.13
2019-03-20T14:15:49.309Z,9.93
2019-03-20T14:18:18.540Z,9.23
2019-03-20T14:20:47.796Z,9.77
2019-03-20T14:23:17.011Z,9.87
2019-03-20T14:25:46.179Z,10.20
2019-03-20T14:28:15.474Z,9.53
2019-03-20T14:30:44.735Z,9.60
2019-03-20T14:33:13.996Z,9.53
2019-03-20T14:35:43.174Z,9.80
2019-03-20T14:38:12.439Z,9.93
2019-03-20T14:40:41.815Z,10.70
2019-03-20T14:43:11.407Z,10.33
2019-03-20T14:45:42.167Z,9.70
2019-03-20T14:48:11.374Z,10.90
2019-03-20T14:50:40.694Z,10.57
2019-03-20T14:53:10.082Z,10.20
2019-03-20T14:55:42.163Z,10.40
2019-03-20T14:58:11.511Z,10.20
2019-03-20T15:00:40.833Z,10.67
2019-03-20T15:03:10.101Z,10.80
2019-03-20T15:05:39.419Z,10.13
2019-03-20T15:08:08.739Z,10.67
2019-03-20T15:10:45.668Z,10.30
2019-03-20T15:13:10.014Z,10.53
2019-03-20T15:15:52.261Z,10.67
2019-03-20T15:18:21.525Z,9.77
2019-03-20T15:20:50.812Z,10.37
2019-03-20T15:23:19.987Z,9.70
2019-03-20T15:25:49.222Z,9.10
2019-03-20T15:28:18.453Z,10.17
2019-03-20T15:30:47.757Z,11.77
2019-03-20T15:33:19.261Z,12.97
2019-03-20T15:35:50.741Z,14.13
2019-03-20T15:38:20.179Z,14.90
2019-03-20T15:40:56.065Z,14.80
2019-03-20T15:43:20.877Z,12.83
2019-03-20T15:45:50.236Z,11.67
2019-03-20T15:48:19.596Z,12.73
2019-03-20T15:50:48.807Z,15.00
2019-03-20T15:53:18.480Z,15.23
2019-03-20T15:55:47.733Z,15.73
2019-03-20T15:58:16.987Z,16.57
2019-03-20T16:00:46.243Z,15.80
2019-03-20T16:03:16.719Z,14.07
2019-03-20T16:05:46.087Z,11.30
2019-03-20T16:08:15.451Z,11.10
2019-03-20T16:10:44.769Z,9.83
2019-03-20T16:13:14.044Z,9.80
2019-03-20T16:15:43.355Z,9.80
2019-03-20T16:18:12.805Z,10.73
2019-03-20T16:20:42.192Z,10.67
2019-03-20T16:23:12.931Z,9.93
2019-03-20T16:25:42.193Z,10.30
2019-03-20T16:28:11.531Z,9.90
2019-03-20T16:30:40.845Z,9.87
2019-03-20T16:33:10.201Z,10.17
2019-03-20T16:35:39.417Z,10.07
2019-03-20T16:38:10.793Z,10.03
2019-03-20T16:40:40.161Z,10.80
2019-03-20T16:43:09.506Z,10.50
2019-03-20T16:45:38.820Z,11.00
2019-03-20T16:48:08.102Z,11.40
2019-03-20T16:50:37.660Z,11.67
2019-03-20T16:53:06.881Z,11.73
2019-03-20T16:55:36.233Z,11.63
2019-03-20T16:58:05.465Z,11.90
2019-03-20T17:00:34.977Z,11.87
2019-03-20T17:03:04.317Z,14.23
2019-03-20T17:05:33.578Z,13.63
2019-03-20T17:08:02.863Z,14.00
2019-03-20T17:10:34.260Z,14.07
2019-03-20T17:13:03.530Z,16.60
2019-03-20T17:15:32.903Z,18.23
2019-03-20T17:18:02.090Z,25.70
2019-03-20T17:20:31.420Z,30.53
2019-03-20T17:23:00.641Z,32.93
2019-03-20T17:25:29.907Z,32.37
2019-03-20T17:27:59.250Z,31.70
2019-03-20T17:30:30.423Z,35.77
2019-03-20T17:32:59.979Z,37.23
2019-03-20T17:35:29.240Z,38.53
2019-03-20T17:37:58.507Z,38.20
2019-03-20T17:40:27.992Z,36.63
2019-03-20T17:42:57.430Z,36.07
2019-03-20T17:45:27.277Z,34.73
2019-03-20T17:47:56.694Z,35.37
2019-03-20T17:50:29.220Z,36.87
2019-03-20T17:52:58.570Z,36.00
2019-03-20T17:55:28.126Z,35.40
2019-03-20T17:57:57.461Z,37.07
2019-03-20T18:00:33.758Z,37.77
2019-03-20T18:03:03.503Z,38.00
2019-03-20T18:05:32.858Z,38.30
2019-03-20T18:08:02.074Z,39.13
2019-03-20T18:10:33.196Z,40.70
2019-03-20T18:13:02.419Z,40.37
2019-03-20T18:15:31.782Z,41.57
2019-03-20T18:18:03.446Z,43.33
2019-03-20T18:20:32.946Z,44.97
2019-03-20T18:23:02.291Z,48.33
2019-03-20T18:25:31.928Z,51.07
2019-03-20T18:28:01.308Z,56.13
2019-03-20T18:30:30.899Z,57.10
2019-03-20T18:33:00.409Z,59.20
2019-03-20T18:35:29.824Z,62.67
2019-03-20T18:37:59.332Z,60.80
2019-03-20T18:40:28.805Z,60.33
2019-03-20T18:42:58.296Z,59.90
2019-03-20T18:45:27.889Z,58.57
2019-03-20T18:47:58.439Z,59.13
2019-03-20T18:50:28.327Z,55.43
2019-03-20T18:52:57.865Z,53.27
2019-03-20T18:55:27.233Z,51.00
2019-03-20T18:57:56.672Z,51.67
2019-03-20T19:00:26.955Z,52.17
2019-03-20T19:02:57.170Z,53.37
2019-03-20T19:05:36.739Z,52.90
2019-03-20T19:08:06.524Z,52.67
2019-03-20T19:10:36.274Z,52.90
2019-03-20T19:13:07.163Z,56.20
2019-03-20T19:15:36.816Z,55.17
2019-03-20T19:18:06.262Z,55.37
2019-03-20T19:20:36.097Z,54.67
2019-03-20T19:23:05.823Z,54.33
2019-03-20T19:25:35.325Z,54.90
2019-03-20T19:28:05.187Z,53.83
2019-03-20T19:30:35.135Z,57.60
2019-03-20T19:33:05.217Z,54.90
2019-03-20T19:35:34.846Z,60.40
2019-03-20T19:38:04.793Z,58.07
2019-03-20T19:40:34.325Z,56.60
2019-03-20T19:43:03.758Z,54.60
2019-03-20T19:45:35.486Z,54.30
2019-03-20T19:48:04.915Z,51.87
2019-03-20T19:50:34.277Z,53.70
2019-03-20T19:53:03.600Z,52.17
2019-03-20T19:55:33.032Z,53.17
2019-03-20T19:58:02.526Z,52.53
2019-03-20T20:00:32.112Z,52.57
2019-03-20T20:03:01.973Z,51.87
2019-03-20T20:05:31.391Z,60.50
2019-03-20T20:08:00.839Z,61.73
2019-03-20T20:10:30.577Z,63.10
2019-03-20T20:13:00.301Z,66.17
2019-03-20T20:15:29.783Z,67.90
2019-03-20T20:17:59.197Z,64.53
2019-03-20T20:20:28.565Z,63.80
2019-03-20T20:22:58.152Z,62.63
2019-03-20T20:25:27.567Z,60.40
2019-03-20T20:27:57.031Z,59.33
2019-03-20T20:30:26.515Z,59.50
2019-03-20T20:32:55.914Z,60.90
2019-03-20T20:35:25.312Z,67.60
2019-03-20T20:37:54.843Z,70.50
2019-03-20T20:40:24.382Z,74.40
2019-03-20T20:42:53.729Z,74.83
2019-03-20T20:45:23.146Z,70.33
2019-03-20T20:47:52.817Z,66.83
2019-03-20T20:50:22.349Z,66.07
2019-03-20T20:52:52.413Z,69.37
2019-03-20T20:55:21.960Z,76.93
2019-03-20T20:57:51.429Z,76.13
2019-03-20T21:00:23.298Z,81.57
2019-03-20T21:02:52.840Z,83.93
2019-03-20T21:05:22.446Z,81.57
2019-03-20T21:07:51.752Z,84.37
2019-03-20T21:10:21.052Z,88.27
2019-03-20T21:12:56.290Z,83.07
2019-03-20T21:15:35.375Z,81.33
2019-03-20T21:18:50.320Z,82.10
2019-03-20T21:21:20.694Z,82.20
2019-03-20T21:24:23.632Z,81.60
2019-03-20T21:27:23.771Z,76.77
2019-03-20T21:30:11.004Z,66.80
2019-03-20T21:32:42.696Z,64.03
2019-03-20T21:36:05.290Z,61.57
2019-03-20T21:38:35.206Z,60.93
2019-03-20T21:41:40.656Z,63.13
2019-03-20T21:44:49.768Z,69.80
2019-03-20T21:47:33.646Z,79.60
2019-03-20T21:50:35.041Z,82.83
2019-03-20T21:53:05.081Z,98.80
2019-03-20T21:56:00.614Z,95.70
2019-03-20T21:58:45.819Z,100.17
2019-03-20T22:02:02.766Z,98.33
2019-03-20T22:04:32.939Z,107.33
2019-03-20T22:07:10.379Z,106.50
2019-03-20T22:10:19.343Z,114.50
2019-03-20T22:13:18.975Z,111.43
2019-03-20T22:16:23.135Z,115.60
2019-03-20T22:19:25.497Z,101.10
2019-03-20T22:22:24.384Z,98.80
2019-03-20T22:25:33.885Z,95.50
2019-03-20T22:28:42.770Z,101.20
2019-03-20T22:31:13.132Z,100.87
2019-03-20T22:34:18.281Z,101.63
2019-03-20T22:36:48.313Z,103.90
2019-03-20T22:40:07.651Z,106.00
2019-03-20T22:43:17.608Z,116.37
2019-03-20T22:46:30.643Z,117.57
2019-03-20T22:49:16.943Z,122.53
2019-03-20T22:52:23.524Z,132.57
2019-03-20T22:55:24.383Z,139.60
2019-03-20T22:58:15.643Z,143.63
2019-03-20T23:00:46.642Z,143.70
2019-03-20T23:03:22.378Z,147.00
2019-03-20T23:05:52.335Z,147.73
2019-03-20T23:08:22.313Z,140.83
2019-03-20T23:10:52.616Z,144.73
2019-03-20T23:13:22.454Z,140.20
2019-03-20T23:15:52.722Z,131.83
2019-03-20T23:18:22.637Z,123.00
2019-03-20T23:20:52.462Z,116.73
2019-03-20T23:23:22.369Z,117.10
2019-03-20T23:25:52.242Z,120.50
2019-03-20T23:28:22.624Z,113.13
2019-03-20T23:30:52.738Z,113.20
2019-03-20T23:33:22.663Z,108.93
2019-03-20T23:35:52.515Z,98.53
2019-03-20T23:38:22.547Z,93.57
2019-03-20T23:40:52.559Z,91.20
2019-03-20T23:43:22.508Z,89.47
2019-03-20T23:45:52.461Z,87.10
2019-03-20T23:48:42.501Z,88.60
2019-03-20T23:51:14.754Z,83.90
2019-03-20T23:53:48.006Z,84.47
2019-03-20T23:56:17.875Z,86.50
2019-03-20T23:58:47.753Z,89.73
